Time;durP1;ratioP1;P1;durP2;ratioP2;P2;SDS_P1;SDS_P2;PMS_P1;PMS_P2;Temp;Humidity;BMP_temperature;BMP_pressure;BME280_temperature;BME280_humidity;BME280_pressure;Samples;Min_cycle;Max_cycle;Signal;HPM_P1;HPM_P2
2023/08/30 00:00:57;;;;;;;1.40;1.30;;;;;;;;;;5026623;28;20152;-82
2023/08/30 00:03:23;;;;;;;1.70;1.60;;;;;;;;;;5021324;28;20141;-82
2023/08/30 00:05:49;;;;;;;1.63;1.52;;;;;;;;;;5022499;28;20136;-82
2023/08/30 00:08:19;;;;;;;1.25;1.20;;;;;;;;;;5023663;28;20045;-82
2023/08/30 00:10:46;;;;;;;1.63;1.52;;;;;;;;;;5024731;28;20211;-82
2023/08/30 00:13:12;;;;;;;1.75;1.65;;;;;;;;;;5022706;28;20511;-82
2023/08/30 00:15:38;;;;;;;1.67;1.58;;;;;;;;;;5024173;28;20092;-82
2023/08/30 00:18:04;;;;;;;1.90;1.80;;;;;;;;;;5026369;28;20058;-82
2023/08/30 00:20:33;;;;;;;1.85;1.75;;;;;;;;;;5022375;28;20050;-82
2023/08/30 00:22:59;;;;;;;1.55;1.45;;;;;;;;;;5026895;28;20053;-81
2023/08/30 00:25:25;;;;;;;1.55;1.45;;;;;;;;;;5026402;28;20044;-82
2023/08/30 00:27:51;;;;;;;1.73;1.63;;;;;;;;;;5023003;28;20403;-82
2023/08/30 00:30:17;;;;;;;2.10;1.92;;;;;;;;;;5030376;28;20041;-82
2023/08/30 00:32:44;;;;;;;2.13;2.03;;;;;;;;;;5024625;28;20044;-81
2023/08/30 00:35:10;;;;;;;2.10;1.90;;;;;;;;;;5022486;28;20049;-82
2023/08/30 00:37:36;;;;;;;2.60;2.40;;;;;;;;;;5030891;28;20072;-82
2023/08/30 00:40:03;;;;;;;1.73;1.63;;;;;;;;;;5021616;28;20124;-81
2023/08/30 00:42:29;;;;;;;2.05;1.90;;;;;;;;;;5030361;28;20049;-82
2023/08/30 00:44:55;;;;;;;2.85;2.22;;;;;;;;;;5024091;28;20048;-82
2023/08/30 00:47:21;;;;;;;2.35;2.20;;;;;;;;;;5026079;28;20575;-82
2023/08/30 00:50:04;;;;;;;2.13;2.03;;;;;;;;;;5025256;28;20060;-82
2023/08/30 00:52:30;;;;;;;2.40;2.30;;;;;;;;;;5026159;28;20195;-81
2023/08/30 00:54:56;;;;;;;2.10;1.90;;;;;;;;;;5024160;28;20048;-82
2023/08/30 00:57:22;;;;;;;1.75;1.65;;;;;;;;;;5022945;28;20375;-82
2023/08/30 00:59:48;;;;;;;1.83;1.73;;;;;;;;;;5024214;28;20527;-82
2023/08/30 01:02:14;;;;;;;1.85;1.75;;;;;;;;;;5021651;28;20049;-81
2023/08/30 01:08:03;;;;;;;2.40;2.25;;;;;;;;;;5022241;28;20067;-82
2023/08/30 01:10:52;;;;;;;2.00;1.90;;;;;;;;;;5024563;28;20045;-82
2023/08/30 01:13:22;;;;;;;2.05;1.85;;;;;;;;;;5016272;28;20136;-82
2023/08/30 01:15:49;;;;;;;2.15;1.98;;;;;;;;;;5020314;28;20105;-82
2023/08/30 01:18:18;;;;;;;2.13;2.03;;;;;;;;;;5028680;28;20101;-82
2023/08/30 01:20:46;;;;;;;2.03;1.90;;;;;;;;;;5022846;28;20056;-81
2023/08/30 01:23:12;;;;;;;2.20;2.05;;;;;;;;;;5026731;28;20097;-82
2023/08/30 01:25:38;;;;;;;1.73;1.63;;;;;;;;;;5024962;28;20543;-82
2023/08/30 01:28:07;;;;;;;1.83;1.73;;;;;;;;;;5022518;28;20138;-82
2023/08/30 01:30:34;;;;;;;2.30;2.10;;;;;;;;;;5024154;28;20037;-81
2023/08/30 01:33:03;;;;;;;2.35;1.95;;;;;;;;;;5021950;28;20227;-80
2023/08/30 01:35:32;;;;;;;1.85;1.75;;;;;;;;;;5024843;28;21028;-82
2023/08/30 01:37:59;;;;;;;1.85;1.75;;;;;;;;;;5020982;28;20052;-82
2023/08/30 01:40:26;;;;;;;1.88;1.77;;;;;;;;;;5028071;28;20108;-82
2023/08/30 01:42:52;;;;;;;1.90;1.80;;;;;;;;;;5024969;28;20044;-82
2023/08/30 01:45:19;;;;;;;1.80;1.70;;;;;;;;;;5025857;28;20046;-82
2023/08/30 01:47:45;;;;;;;1.42;1.33;;;;;;;;;;5026384;28;20056;-82
2023/08/30 01:50:12;;;;;;;1.90;1.73;;;;;;;;;;5025281;28;20049;-82
2023/08/30 01:52:38;;;;;;;1.38;1.27;;;;;;;;;;5023021;28;20057;-82
2023/08/30 01:55:05;;;;;;;1.55;1.45;;;;;;;;;;5022970;28;20429;-82
2023/08/30 01:57:31;;;;;;;1.92;1.83;;;;;;;;;;5020492;28;20057;-82
2023/08/30 01:59:57;;;;;;;1.98;1.88;;;;;;;;;;5023473;28;20471;-82
2023/08/30 02:02:23;;;;;;;1.65;1.55;;;;;;;;;;5023326;28;20102;-82
2023/08/30 02:04:49;;;;;;;1.77;1.67;;;;;;;;;;5022162;28;20591;-82
2023/08/30 02:07:20;;;;;;;2.08;1.88;;;;;;;;;;5021229;28;20049;-83
2023/08/30 02:09:50;;;;;;;2.10;2.00;;;;;;;;;;5021097;28;20088;-82
2023/08/30 02:12:17;;;;;;;2.38;2.08;;;;;;;;;;5020627;28;20167;-82
2023/08/30 02:14:47;;;;;;;1.88;1.77;;;;;;;;;;5021730;28;20052;-83
2023/08/30 02:17:17;;;;;;;2.75;2.63;;;;;;;;;;5022643;28;20049;-82
2023/08/30 02:19:44;;;;;;;2.65;2.45;;;;;;;;;;5021337;28;20049;-82
2023/08/30 02:22:10;;;;;;;2.50;2.30;;;;;;;;;;5021392;28;20212;-82
2023/08/30 02:24:36;;;;;;;2.83;2.63;;;;;;;;;;5023413;28;20034;-81
2023/08/30 02:27:03;;;;;;;2.17;2.03;;;;;;;;;;5023013;28;20049;-81
2023/08/30 02:29:29;;;;;;;2.20;2.08;;;;;;;;;;5019729;28;20649;-82
2023/08/30 02:31:55;;;;;;;2.15;2.05;;;;;;;;;;5022311;28;20042;-82
2023/08/30 02:34:21;;;;;;;2.10;2.00;;;;;;;;;;5024814;28;20956;-82
2023/08/30 02:36:47;;;;;;;1.83;1.73;;;;;;;;;;5022499;28;20228;-83
2023/08/30 02:39:15;;;;;;;2.08;1.90;;;;;;;;;;5022937;28;20143;-82
2023/08/30 02:41:41;;;;;;;2.10;2.00;;;;;;;;;;5025603;28;20132;-82
2023/08/30 02:44:08;;;;;;;1.77;1.67;;;;;;;;;;5025083;28;20128;-82
2023/08/30 02:46:37;;;;;;;1.45;1.35;;;;;;;;;;5023805;28;20157;-82
2023/08/30 02:49:03;;;;;;;1.70;1.60;;;;;;;;;;5026882;28;20057;-82
2023/08/30 02:51:29;;;;;;;2.03;1.92;;;;;;;;;;5026715;28;20047;-81
2023/08/30 02:53:55;;;;;;;1.90;1.80;;;;;;;;;;5023452;28;20045;-82
2023/08/30 02:56:21;;;;;;;2.35;2.10;;;;;;;;;;5020474;28;20052;-81
2023/08/30 02:58:47;;;;;;;2.40;2.20;;;;;;;;;;5024608;28;20476;-82
2023/08/30 03:01:13;;;;;;;2.35;2.15;;;;;;;;;;5024389;28;20075;-82
2023/08/30 03:03:39;;;;;;;2.10;2.00;;;;;;;;;;5027967;28;20045;-82
2023/08/30 03:06:05;;;;;;;2.33;2.13;;;;;;;;;;5024992;28;20111;-80
2023/08/30 03:08:32;;;;;;;2.53;2.33;;;;;;;;;;5026152;28;20087;-81
2023/08/30 03:11:08;;;;;;;1.90;1.80;;;;;;;;;;5024074;28;20553;-80
2023/08/30 03:13:34;;;;;;;2.28;2.15;;;;;;;;;;5024302;28;20037;-81
2023/08/30 03:16:00;;;;;;;2.08;1.95;;;;;;;;;;5025119;28;20104;-80
2023/08/30 03:18:26;;;;;;;1.90;1.80;;;;;;;;;;5025076;28;20200;-81
2023/08/30 03:21:01;;;;;;;1.85;1.75;;;;;;;;;;5022664;28;20184;-81
2023/08/30 03:23:27;;;;;;;2.05;1.95;;;;;;;;;;5023789;28;20045;-82
2023/08/30 03:25:53;;;;;;;2.08;1.92;;;;;;;;;;5024720;28;20107;-81
2023/08/30 03:28:19;;;;;;;1.98;1.88;;;;;;;;;;5023462;28;20092;-81
2023/08/30 03:30:45;;;;;;;2.65;2.03;;;;;;;;;;5026664;28;20052;-81
2023/08/30 03:33:12;;;;;;;2.35;2.20;;;;;;;;;;5028374;28;20049;-81
2023/08/30 03:35:38;;;;;;;2.45;2.25;;;;;;;;;;5027587;28;20045;-81
2023/08/30 03:38:04;;;;;;;2.40;2.20;;;;;;;;;;5025392;28;20261;-82
2023/08/30 03:40:30;;;;;;;2.33;2.13;;;;;;;;;;5029220;28;20053;-82
2023/08/30 03:42:56;;;;;;;2.75;2.53;;;;;;;;;;5022308;28;20056;-82
2023/08/30 03:45:22;;;;;;;2.42;2.22;;;;;;;;;;5031608;28;20053;-81
2023/08/30 03:47:48;;;;;;;2.13;2.00;;;;;;;;;;5030799;28;20049;-81
2023/08/30 03:50:15;;;;;;;3.65;3.35;;;;;;;;;;5024634;28;20037;-81
2023/08/30 03:52:41;;;;;;;3.22;2.70;;;;;;;;;;5032213;28;20056;-81
2023/08/30 03:55:07;;;;;;;2.58;2.38;;;;;;;;;;5026209;28;20396;-81
2023/08/30 03:57:34;;;;;;;2.10;2.00;;;;;;;;;;5026712;28;20120;-82
2023/08/30 04:00:00;;;;;;;2.88;2.67;;;;;;;;;;5028841;28;20052;-81
2023/08/30 04:02:26;;;;;;;3.38;2.90;;;;;;;;;;5027566;28;20399;-81
2023/08/30 04:04:52;;;;;;;2.88;2.67;;;;;;;;;;5025687;28;20048;-81
2023/08/30 04:07:18;;;;;;;3.00;2.80;;;;;;;;;;5024351;28;20048;-81
2023/08/30 04:09:44;;;;;;;2.95;2.75;;;;;;;;;;5024012;28;20460;-81
2023/08/30 04:12:10;;;;;;;2.55;2.35;;;;;;;;;;5022901;28;20057;-81
2023/08/30 04:14:36;;;;;;;2.42;2.22;;;;;;;;;;5022858;28;20107;-81
2023/08/30 04:17:02;;;;;;;2.95;2.75;;;;;;;;;;5023664;28;20491;-82
2023/08/30 04:19:28;;;;;;;2.22;2.03;;;;;;;;;;5023049;28;20049;-82
2023/08/30 04:21:54;;;;;;;2.35;2.15;;;;;;;;;;5022231;28;20056;-81
2023/08/30 04:24:20;;;;;;;2.20;2.10;;;;;;;;;;5024713;28;20053;-82
2023/08/30 04:26:51;;;;;;;2.45;2.25;;;;;;;;;;5024255;28;20049;-82
2023/08/30 04:29:17;;;;;;;2.00;1.90;;;;;;;;;;5025188;28;20095;-81
2023/08/30 04:31:44;;;;;;;2.42;2.10;;;;;;;;;;5023232;28;20054;-81
2023/08/30 04:34:10;;;;;;;2.25;2.05;;;;;;;;;;5025578;28;20119;-80
2023/08/30 04:36:35;;;;;;;2.25;2.05;;;;;;;;;;5024473;28;20480;-79
2023/08/30 04:39:02;;;;;;;2.97;2.72;;;;;;;;;;5024836;28;20080;-80
2023/08/30 04:41:28;;;;;;;2.28;2.08;;;;;;;;;;5023745;28;20029;-82
2023/08/30 04:43:54;;;;;;;2.25;2.13;;;;;;;;;;5025582;28;20053;-81
2023/08/30 04:46:21;;;;;;;2.70;2.50;;;;;;;;;;5024767;28;20614;-82
2023/08/30 04:48:47;;;;;;;3.22;2.90;;;;;;;;;;5029060;28;20047;-82
2023/08/30 04:51:13;;;;;;;3.10;2.88;;;;;;;;;;5027390;28;20033;-80
2023/08/30 04:53:41;;;;;;;2.90;2.70;;;;;;;;;;5027937;28;20045;-82
2023/08/30 04:56:14;;;;;;;3.17;2.88;;;;;;;;;;5025500;28;20048;-82
2023/08/30 04:58:40;;;;;;;3.78;3.47;;;;;;;;;;5023990;28;20275;-82
2023/08/30 05:01:06;;;;;;;3.58;3.28;;;;;;;;;;5024401;28;20117;-82
2023/08/30 05:03:33;;;;;;;3.55;3.25;;;;;;;;;;5025599;28;20049;-82
2023/08/30 05:05:59;;;;;;;2.70;2.50;;;;;;;;;;5026634;28;20041;-82
2023/08/30 05:08:25;;;;;;;3.25;2.80;;;;;;;;;;5024616;28;20076;-82
2023/08/30 05:10:54;;;;;;;2.80;2.60;;;;;;;;;;5022709;28;20053;-82
2023/08/30 05:13:20;;;;;;;3.13;2.92;;;;;;;;;;5021845;28;20519;-82
2023/08/30 05:15:46;;;;;;;3.10;2.90;;;;;;;;;;5022528;28;20125;-80
2023/08/30 05:18:12;;;;;;;4.00;3.70;;;;;;;;;;5022267;28;20135;-82
2023/08/30 05:20:38;;;;;;;3.53;3.22;;;;;;;;;;5024138;28;20460;-83
2023/08/30 05:23:04;;;;;;;4.72;4.32;;;;;;;;;;5024274;28;20092;-81
2023/08/30 05:25:30;;;;;;;3.45;3.15;;;;;;;;;;5019204;28;20053;-82
2023/08/30 05:27:56;;;;;;;2.65;2.45;;;;;;;;;;5022240;28;20459;-82
2023/08/30 05:30:22;;;;;;;3.55;3.28;;;;;;;;;;5026555;28;20087;-81
2023/08/30 05:32:48;;;;;;;4.57;3.92;;;;;;;;;;5025874;28;20049;-81
2023/08/30 05:35:14;;;;;;;4.13;3.75;;;;;;;;;;5023727;28;20083;-83
2023/08/30 05:37:40;;;;;;;2.92;2.70;;;;;;;;;;5023599;28;20087;-81
2023/08/30 05:40:07;;;;;;;4.07;3.78;;;;;;;;;;5023347;28;20081;-82
2023/08/30 05:42:33;;;;;;;3.50;3.20;;;;;;;;;;5027779;28;20049;-82
2023/08/30 05:44:59;;;;;;;3.60;3.30;;;;;;;;;;5027014;28;20044;-79
2023/08/30 05:47:25;;;;;;;4.20;3.80;;;;;;;;;;5025824;28;20622;-81
2023/08/30 05:49:51;;;;;;;3.03;2.80;;;;;;;;;;5021514;28;20045;-81
2023/08/30 05:52:21;;;;;;;4.00;3.60;;;;;;;;;;5026200;28;20392;-82
2023/08/30 05:54:47;;;;;;;4.05;3.72;;;;;;;;;;5029696;28;20500;-81
2023/08/30 05:57:13;;;;;;;4.35;3.95;;;;;;;;;;5026526;28;20048;-82
2023/08/30 05:59:39;;;;;;;4.15;3.85;;;;;;;;;;5023469;28;20057;-82
2023/08/30 06:02:05;;;;;;;3.70;3.40;;;;;;;;;;5022255;28;20053;-81
2023/08/30 06:04:31;;;;;;;4.25;3.85;;;;;;;;;;5025385;28;20621;-82
2023/08/30 06:06:57;;;;;;;2.95;2.75;;;;;;;;;;5025926;28;20095;-82
2023/08/30 06:09:23;;;;;;;3.55;3.15;;;;;;;;;;5022803;28;20128;-80
2023/08/30 06:11:49;;;;;;;3.50;3.20;;;;;;;;;;5020541;28;20045;-82
2023/08/30 06:14:15;;;;;;;5.03;4.15;;;;;;;;;;5020782;28;20041;-81
2023/08/30 06:16:44;;;;;;;4.18;3.88;;;;;;;;;;5021959;28;20049;-81
2023/08/30 06:19:10;;;;;;;3.88;3.58;;;;;;;;;;5024471;28;20563;-81
2023/08/30 06:21:36;;;;;;;5.00;4.50;;;;;;;;;;5018045;28;20038;-82
2023/08/30 06:24:03;;;;;;;4.60;4.20;;;;;;;;;;5022286;28;20045;-81
2023/08/30 06:26:29;;;;;;;4.78;4.38;;;;;;;;;;5021393;28;20037;-82
2023/08/30 06:28:55;;;;;;;4.65;4.25;;;;;;;;;;5023393;28;20559;-81
2023/08/30 06:31:21;;;;;;;4.47;4.07;;;;;;;;;;5021795;28;20045;-82
2023/08/30 06:33:48;;;;;;;4.70;4.30;;;;;;;;;;5021289;28;20056;-82
2023/08/30 06:36:17;;;;;;;3.10;2.83;;;;;;;;;;5026025;28;20656;-80
2023/08/30 06:38:43;;;;;;;4.45;3.38;;;;;;;;;;5028797;28;20045;-83
2023/08/30 06:41:09;;;;;;;6.55;4.20;;;;;;;;;;5025830;28;20472;-83
2023/08/30 06:43:35;;;;;;;4.63;4.22;;;;;;;;;;5031123;28;20045;-81
2023/08/30 06:46:01;;;;;;;4.47;4.07;;;;;;;;;;5023629;28;20065;-81
2023/08/30 06:48:27;;;;;;;4.95;4.53;;;;;;;;;;5030407;28;20415;-82
2023/08/30 06:50:53;;;;;;;4.30;3.90;;;;;;;;;;5029292;28;20034;-82
2023/08/30 06:53:19;;;;;;;4.97;4.47;;;;;;;;;;5026457;28;20041;-80
2023/08/30 06:55:45;;;;;;;4.40;3.90;;;;;;;;;;5031348;28;20041;-81
2023/08/30 06:58:11;;;;;;;6.28;5.68;;;;;;;;;;5028487;28;20045;-82
2023/08/30 07:00:37;;;;;;;6.10;4.93;;;;;;;;;;5021956;28;20046;-81
2023/08/30 07:03:04;;;;;;;5.78;5.05;;;;;;;;;;5029010;28;20053;-78
2023/08/30 07:05:30;;;;;;;5.15;4.65;;;;;;;;;;5027185;28;20056;-78
2023/08/30 07:07:56;;;;;;;5.47;4.97;;;;;;;;;;5026531;28;20145;-80
2023/08/30 07:10:22;;;;;;;4.50;4.10;;;;;;;;;;5027045;28;20120;-78
2023/08/30 07:12:48;;;;;;;5.50;5.00;;;;;;;;;;5027105;28;20112;-80
2023/08/30 07:15:16;;;;;;;5.28;4.70;;;;;;;;;;5026046;28;20049;-80
2023/08/30 07:17:42;;;;;;;5.22;4.72;;;;;;;;;;5021708;28;20073;-80
2023/08/30 07:20:09;;;;;;;6.80;6.10;;;;;;;;;;5033727;28;20146;-79
2023/08/30 07:22:35;;;;;;;8.05;7.30;;;;;;;;;;5032539;28;20140;-79
2023/08/30 07:25:02;;;;;;;6.32;5.75;;;;;;;;;;5029311;28;20132;-79
2023/08/30 07:27:29;;;;;;;6.70;6.03;;;;;;;;;;5026794;28;20956;-79
2023/08/30 07:29:55;;;;;;;5.68;5.15;;;;;;;;;;5032525;28;20550;-79
2023/08/30 07:32:21;;;;;;;7.35;6.30;;;;;;;;;;5029151;28;20466;-78
2023/08/30 07:34:47;;;;;;;6.43;5.63;;;;;;;;;;5027861;28;20033;-79
2023/08/30 07:37:20;;;;;;;5.95;5.45;;;;;;;;;;5032066;28;20049;-79
2023/08/30 07:39:46;;;;;;;7.25;6.45;;;;;;;;;;5027478;28;20041;-79
2023/08/30 07:42:12;;;;;;;6.32;5.75;;;;;;;;;;5029116;28;20049;-77
2023/08/30 07:44:38;;;;;;;6.00;5.40;;;;;;;;;;5026881;28;20689;-69
2023/08/30 07:47:04;;;;;;;5.97;5.38;;;;;;;;;;5026152;28;20052;-72
2023/08/30 07:49:30;;;;;;;6.60;6.00;;;;;;;;;;5028046;28;20818;-73
2023/08/30 07:51:56;;;;;;;5.47;4.97;;;;;;;;;;5032063;28;20049;-72
2023/08/30 07:54:22;;;;;;;4.25;3.90;;;;;;;;;;5031216;28;20076;-75
2023/08/30 07:56:48;;;;;;;4.57;4.18;;;;;;;;;;5020816;28;20046;-72
2023/08/30 07:59:14;;;;;;;6.45;5.65;;;;;;;;;;5028302;28;20110;-72
2023/08/30 08:01:40;;;;;;;5.40;4.90;;;;;;;;;;5027360;28;20601;-72
2023/08/30 08:04:06;;;;;;;6.03;4.88;;;;;;;;;;5026738;28;20049;-72
2023/08/30 08:06:32;;;;;;;4.93;4.43;;;;;;;;;;5027594;28;20502;-72
2023/08/30 08:08:58;;;;;;;7.53;4.28;;;;;;;;;;5028673;28;20057;-73
2023/08/30 08:11:24;;;;;;;4.47;4.07;;;;;;;;;;5024384;28;20061;-75
2023/08/30 08:13:50;;;;;;;4.78;4.28;;;;;;;;;;5023722;28;20080;-74
2023/08/30 08:16:20;;;;;;;5.45;4.82;;;;;;;;;;5024779;28;20045;-73
2023/08/30 08:18:46;;;;;;;6.32;5.72;;;;;;;;;;5020043;28;20695;-76
2023/08/30 08:21:12;;;;;;;5.75;4.30;;;;;;;;;;5021769;28;20405;-74
2023/08/30 08:23:38;;;;;;;3.70;3.40;;;;;;;;;;5028094;28;20609;-76
2023/08/30 08:26:04;;;;;;;5.05;3.95;;;;;;;;;;5020558;28;20057;-77
2023/08/30 08:28:30;;;;;;;3.92;3.53;;;;;;;;;;5019856;28;20061;-76
2023/08/30 08:30:56;;;;;;;6.10;4.53;;;;;;;;;;5023748;28;20045;-76
2023/08/30 08:33:23;;;;;;;5.80;4.65;;;;;;;;;;5024834;28;20423;-76
2023/08/30 08:35:50;;;;;;;4.38;3.97;;;;;;;;;;5024860;28;20095;-76
2023/08/30 08:38:16;;;;;;;6.55;3.50;;;;;;;;;;5019264;28;20056;-76
2023/08/30 08:40:42;;;;;;;4.25;3.95;;;;;;;;;;5022847;28;20079;-76
2023/08/30 08:43:11;;;;;;;4.78;3.75;;;;;;;;;;5026164;28;20077;-76
2023/08/30 08:45:37;;;;;;;4.35;3.95;;;;;;;;;;5023872;28;20060;-79
2023/08/30 08:48:05;;;;;;;3.15;2.92;;;;;;;;;;5030346;28;20119;-77
2023/08/30 08:50:31;;;;;;;4.43;4.03;;;;;;;;;;5025868;28;20050;-74
2023/08/30 08:53:02;;;;;;;4.03;3.72;;;;;;;;;;5029513;28;20042;-73
2023/08/30 08:55:30;;;;;;;6.78;5.95;;;;;;;;;;5025684;28;20088;-69
2023/08/30 08:57:56;;;;;;;7.20;5.60;;;;;;;;;;5029489;28;20056;-69
2023/08/30 09:00:22;;;;;;;6.07;4.95;;;;;;;;;;5030655;28;20091;-71
2023/08/30 09:02:51;;;;;;;4.63;4.20;;;;;;;;;;5030911;28;20408;-70
2023/08/30 09:05:19;;;;;;;6.35;5.72;;;;;;;;;;5019686;28;20042;-69
2023/08/30 09:07:46;;;;;;;5.40;4.90;;;;;;;;;;5025021;28;20049;-69
2023/08/30 09:10:12;;;;;;;7.15;5.75;;;;;;;;;;5023711;28;20053;-69
2023/08/30 09:12:38;;;;;;;5.78;5.28;;;;;;;;;;5025000;28;20519;-69
2023/08/30 09:15:04;;;;;;;4.80;4.40;;;;;;;;;;5025679;28;20045;-69
2023/08/30 09:17:38;;;;;;;4.63;4.22;;;;;;;;;;5020802;28;20148;-68
2023/08/30 09:20:08;;;;;;;4.15;3.75;;;;;;;;;;5022290;28;20099;-69
2023/08/30 09:22:37;;;;;;;4.70;4.03;;;;;;;;;;5022649;28;20451;-69
2023/08/30 09:25:03;;;;;;;6.40;4.43;;;;;;;;;;5022459;28;20080;-70
2023/08/30 09:27:36;;;;;;;5.72;4.15;;;;;;;;;;5021119;28;20080;-69
2023/08/30 09:30:04;;;;;;;3.70;3.40;;;;;;;;;;5025757;28;20099;-69
2023/08/30 09:32:30;;;;;;;8.32;6.07;;;;;;;;;;5030960;28;20079;-69
2023/08/30 09:34:56;;;;;;;4.57;4.18;;;;;;;;;;5024737;28;20120;-69
2023/08/30 09:37:23;;;;;;;4.93;4.32;;;;;;;;;;5027037;28;20128;-69
2023/08/30 09:39:52;;;;;;;4.03;3.63;;;;;;;;;;5032638;28;20045;-69
2023/08/30 09:42:19;;;;;;;4.93;4.38;;;;;;;;;;5027405;28;20142;-69
2023/08/30 09:44:47;;;;;;;3.45;3.15;;;;;;;;;;5033044;28;20037;-70
2023/08/30 09:47:14;;;;;;;3.15;2.90;;;;;;;;;;5025293;28;20064;-70
2023/08/30 09:49:45;;;;;;;3.60;3.30;;;;;;;;;;5025251;28;20058;-71
2023/08/30 09:52:12;;;;;;;4.20;3.80;;;;;;;;;;5019714;28;20132;-70
2023/08/30 09:54:41;;;;;;;4.88;4.07;;;;;;;;;;5029725;28;20627;-70
2023/08/30 09:57:07;;;;;;;4.30;3.90;;;;;;;;;;5028076;28;20059;-70
2023/08/30 09:59:33;;;;;;;5.30;4.65;;;;;;;;;;5026565;28;20045;-69
2023/08/30 10:02:00;;;;;;;4.32;3.83;;;;;;;;;;5030472;28;20394;-69
2023/08/30 10:04:27;;;;;;;4.13;3.80;;;;;;;;;;5030125;28;20046;-69
2023/08/30 10:06:54;;;;;;;4.00;3.70;;;;;;;;;;5028683;28;20080;-69
2023/08/30 10:09:20;;;;;;;4.80;4.28;;;;;;;;;;5025131;28;20088;-70
2023/08/30 10:11:47;;;;;;;4.35;3.95;;;;;;;;;;5023726;28;20099;-68
2023/08/30 10:14:13;;;;;;;4.28;3.85;;;;;;;;;;5027862;28;20045;-74
2023/08/30 10:16:46;;;;;;;4.03;3.60;;;;;;;;;;5024750;28;20606;-70
2023/08/30 10:19:12;;;;;;;4.07;3.67;;;;;;;;;;5022208;28;20107;-69
2023/08/30 10:21:39;;;;;;;3.55;3.25;;;;;;;;;;5018441;28;20061;-69
2023/08/30 10:24:07;;;;;;;4.13;3.72;;;;;;;;;;5021653;28;20046;-69
2023/08/30 10:26:34;;;;;;;4.88;4.45;;;;;;;;;;5020103;28;20323;-69
2023/08/30 10:29:00;;;;;;;3.05;2.75;;;;;;;;;;5022617;28;20500;-69
2023/08/30 10:31:28;;;;;;;3.50;3.20;;;;;;;;;;5023174;28;20049;-71
2023/08/30 10:33:55;;;;;;;4.03;3.72;;;;;;;;;;5012133;28;20056;-67
2023/08/30 10:36:23;;;;;;;3.72;3.42;;;;;;;;;;5016547;28;20053;-68
2023/08/30 10:38:52;;;;;;;4.22;3.72;;;;;;;;;;5019080;28;20561;-68
2023/08/30 10:41:22;;;;;;;4.05;3.75;;;;;;;;;;5021981;28;20053;-68
2023/08/30 10:43:52;;;;;;;3.13;2.90;;;;;;;;;;5021371;28;20080;-70
2023/08/30 10:46:30;;;;;;;3.50;3.20;;;;;;;;;;5025526;28;20057;-69
2023/08/30 10:49:09;;;;;;;3.03;2.72;;;;;;;;;;5034864;28;20080;-69
2023/08/30 10:51:43;;;;;;;2.70;2.50;;;;;;;;;;5016358;28;20044;-69
2023/08/30 10:54:13;;;;;;;3.70;3.40;;;;;;;;;;5033123;28;20065;-69
2023/08/30 10:56:48;;;;;;;5.25;4.35;;;;;;;;;;5031337;28;20115;-69
2023/08/30 10:59:20;;;;;;;3.72;3.38;;;;;;;;;;5031681;28;20496;-69
2023/08/30 11:01:47;;;;;;;4.22;3.75;;;;;;;;;;5030786;28;20056;-68
2023/08/30 11:04:14;;;;;;;4.40;3.67;;;;;;;;;;5019967;28;20690;-70
2023/08/30 11:06:45;;;;;;;3.15;2.92;;;;;;;;;;5022497;28;20708;-68
2023/08/30 11:09:13;;;;;;;3.80;3.45;;;;;;;;;;5024573;28;20756;-68
2023/08/30 11:11:39;;;;;;;3.33;3.03;;;;;;;;;;5024039;28;20064;-68
2023/08/30 11:14:06;;;;;;;4.10;3.70;;;;;;;;;;5018558;28;20897;-68
2023/08/30 11:16:34;;;;;;;3.08;2.78;;;;;;;;;;5021344;28;20575;-69
2023/08/30 11:19:01;;;;;;;4.25;3.17;;;;;;;;;;5025751;28;20049;-67
2023/08/30 11:21:27;;;;;;;3.35;3.05;;;;;;;;;;5024049;28;20060;-68
2023/08/30 11:23:53;;;;;;;2.90;2.70;;;;;;;;;;5026706;28;20144;-68
2023/08/30 11:26:19;;;;;;;3.00;2.80;;;;;;;;;;5026897;28;20045;-69
2023/08/30 11:28:48;;;;;;;2.42;2.22;;;;;;;;;;5026496;28;20033;-69
2023/08/30 11:31:22;;;;;;;2.25;2.05;;;;;;;;;;5031480;28;20045;-69
2023/08/30 11:33:51;;;;;;;2.67;2.40;;;;;;;;;;5033845;28;20601;-68
2023/08/30 11:36:18;;;;;;;2.33;2.13;;;;;;;;;;5035928;28;20045;-69
2023/08/30 11:38:45;;;;;;;3.20;2.45;;;;;;;;;;5036826;28;20041;-68
2023/08/30 11:41:11;;;;;;;2.30;1.70;;;;;;;;;;5035525;28;20045;-69
2023/08/30 11:43:37;;;;;;;2.03;1.83;;;;;;;;;;5031583;28;20040;-69
2023/08/30 11:46:04;;;;;;;1.35;1.25;;;;;;;;;;5036188;28;20140;-69
2023/08/30 11:48:30;;;;;;;1.45;1.35;;;;;;;;;;5028501;28;20048;-69
2023/08/30 11:50:56;;;;;;;1.60;1.40;;;;;;;;;;5032133;28;20495;-70
2023/08/30 11:53:22;;;;;;;1.17;1.08;;;;;;;;;;5034461;28;20038;-70
2023/08/30 11:55:48;;;;;;;1.67;1.30;;;;;;;;;;5034018;28;20045;-69
2023/08/30 11:58:14;;;;;;;1.40;1.30;;;;;;;;;;5034679;28;20045;-70
2023/08/30 12:00:43;;;;;;;1.00;0.80;;;;;;;;;;5030176;28;20052;-70
2023/08/30 12:03:09;;;;;;;1.20;1.10;;;;;;;;;;5032673;28;20045;-70
2023/08/30 12:05:36;;;;;;;0.70;0.70;;;;;;;;;;5029115;28;20044;-70
2023/08/30 12:08:03;;;;;;;1.00;0.98;;;;;;;;;;5030940;28;20246;-70
2023/08/30 12:10:30;;;;;;;0.90;0.90;;;;;;;;;;5029591;28;20089;-70
2023/08/30 12:12:58;;;;;;;1.23;0.90;;;;;;;;;;5026354;28;20128;-70
2023/08/30 12:15:26;;;;;;;1.35;1.25;;;;;;;;;;5026836;28;20037;-70
2023/08/30 12:17:52;;;;;;;1.25;1.15;;;;;;;;;;5029634;28;20392;-69
2023/08/30 12:20:23;;;;;;;1.30;1.20;;;;;;;;;;5027549;28;20743;-69
2023/08/30 12:22:50;;;;;;;0.60;0.60;;;;;;;;;;5024475;28;20041;-70
2023/08/30 12:25:24;;;;;;;0.73;0.73;;;;;;;;;;5024407;28;20053;-68
2023/08/30 12:27:50;;;;;;;1.35;1.25;;;;;;;;;;5026167;28;20049;-68
2023/08/30 12:30:17;;;;;;;0.82;0.80;;;;;;;;;;5039351;28;20053;-68
2023/08/30 12:32:43;;;;;;;1.40;1.30;;;;;;;;;;5033332;28;20036;-68
2023/08/30 12:35:10;;;;;;;0.90;0.90;;;;;;;;;;5037478;28;20084;-68
2023/08/30 12:37:36;;;;;;;0.55;0.55;;;;;;;;;;5036889;28;20102;-68
2023/08/30 12:40:03;;;;;;;0.80;0.80;;;;;;;;;;5039886;28;20053;-68
2023/08/30 12:42:29;;;;;;;0.80;0.73;;;;;;;;;;5037220;28;20610;-68
2023/08/30 12:44:55;;;;;;;0.70;0.70;;;;;;;;;;5033503;28;20540;-67
2023/08/30 12:47:21;;;;;;;1.02;0.93;;;;;;;;;;5020752;28;20061;-68
2023/08/30 12:49:47;;;;;;;1.02;1.00;;;;;;;;;;5022104;28;20506;-67
2023/08/30 12:52:13;;;;;;;1.27;1.17;;;;;;;;;;5019525;28;20069;-67
2023/08/30 12:54:39;;;;;;;1.30;1.20;;;;;;;;;;5025377;28;20041;-67
2023/08/30 12:57:05;;;;;;;2.60;2.40;;;;;;;;;;5021710;28;20080;-68
2023/08/30 12:59:31;;;;;;;2.63;2.20;;;;;;;;;;5023046;28;20423;-68
2023/08/30 13:01:57;;;;;;;1.95;1.85;;;;;;;;;;5023254;28;20049;-68
2023/08/30 13:04:24;;;;;;;1.98;1.88;;;;;;;;;;5019827;28;20045;-68
2023/08/30 13:06:50;;;;;;;1.73;1.63;;;;;;;;;;5028910;28;20064;-68
2023/08/30 13:09:16;;;;;;;1.52;1.42;;;;;;;;;;5025510;28;21016;-67
2023/08/30 13:11:42;;;;;;;2.65;1.42;;;;;;;;;;5025858;28;20496;-67
2023/08/30 13:14:08;;;;;;;1.63;1.40;;;;;;;;;;5025173;28;20060;-67
2023/08/30 13:16:35;;;;;;;1.95;1.85;;;;;;;;;;5028097;28;20404;-67
2023/08/30 13:19:01;;;;;;;1.55;1.45;;;;;;;;;;5024324;28;20527;-67
2023/08/30 13:21:27;;;;;;;1.98;1.88;;;;;;;;;;5007466;28;20045;-67
2023/08/30 13:23:53;;;;;;;1.48;1.38;;;;;;;;;;5032040;28;20041;-67
2023/08/30 13:26:19;;;;;;;1.40;1.27;;;;;;;;;;5037449;28;20509;-67
2023/08/30 13:28:45;;;;;;;1.20;1.10;;;;;;;;;;5036125;28;20045;-67
2023/08/30 13:31:11;;;;;;;1.33;1.23;;;;;;;;;;5036003;28;20049;-67
2023/08/30 13:33:37;;;;;;;1.33;1.23;;;;;;;;;;5032899;28;20524;-69
2023/08/30 13:36:03;;;;;;;1.20;1.10;;;;;;;;;;5022568;28;20058;-69
2023/08/30 13:38:30;;;;;;;1.27;1.17;;;;;;;;;;5022776;28;20526;-69
2023/08/30 13:41:03;;;;;;;1.70;1.60;;;;;;;;;;5029003;28;20045;-70
2023/08/30 13:43:31;;;;;;;1.80;1.70;;;;;;;;;;5033783;28;20052;-70
2023/08/30 13:46:00;;;;;;;1.85;1.10;;;;;;;;;;5038642;28;20053;-69
2023/08/30 13:48:26;;;;;;;2.60;1.05;;;;;;;;;;5022019;28;20046;-70
2023/08/30 13:50:52;;;;;;;1.35;0.90;;;;;;;;;;5027763;28;20040;-69
2023/08/30 13:53:18;;;;;;;1.17;1.02;;;;;;;;;;5032568;28;20045;-70
2023/08/30 13:55:50;;;;;;;1.33;1.08;;;;;;;;;;5036593;28;20051;-70
2023/08/30 13:58:16;;;;;;;1.55;1.45;;;;;;;;;;5026849;28;20091;-69
2023/08/30 14:00:44;;;;;;;1.40;1.30;;;;;;;;;;5016410;28;20546;-69
2023/08/30 14:03:10;;;;;;;2.03;1.90;;;;;;;;;;5014906;28;20052;-69
2023/08/30 14:05:40;;;;;;;1.20;1.10;;;;;;;;;;5015541;28;20095;-69
2023/08/30 14:08:06;;;;;;;1.20;1.10;;;;;;;;;;5019900;28;20565;-69
2023/08/30 14:10:32;;;;;;;1.20;1.10;;;;;;;;;;5011561;28;20072;-69
2023/08/30 14:12:58;;;;;;;0.80;0.80;;;;;;;;;;5019214;28;20084;-69
2023/08/30 14:15:24;;;;;;;1.27;1.17;;;;;;;;;;5021618;28;20033;-69
2023/08/30 14:17:50;;;;;;;1.05;1.00;;;;;;;;;;5021775;28;20627;-69
2023/08/30 14:20:17;;;;;;;2.10;1.60;;;;;;;;;;5017322;28;20068;-69
2023/08/30 14:22:43;;;;;;;1.48;1.38;;;;;;;;;;5012615;28;20052;-70
2023/08/30 14:25:10;;;;;;;1.20;1.10;;;;;;;;;;5015670;28;20620;-70
2023/08/30 14:27:36;;;;;;;1.45;1.35;;;;;;;;;;5015135;28;20124;-70
2023/08/30 14:30:02;;;;;;;1.27;1.17;;;;;;;;;;5015415;28;22009;-70
2023/08/30 14:32:28;;;;;;;1.23;1.13;;;;;;;;;;5018292;28;20051;-70
2023/08/30 14:34:54;;;;;;;1.73;1.63;;;;;;;;;;5032462;28;20524;-70
2023/08/30 14:37:20;;;;;;;1.27;1.17;;;;;;;;;;5033001;28;20053;-70
2023/08/30 14:39:46;;;;;;;1.27;1.15;;;;;;;;;;5039658;28;20395;-70
2023/08/30 14:42:12;;;;;;;1.15;0.93;;;;;;;;;;5037521;28;20159;-70
2023/08/30 14:44:38;;;;;;;0.80;0.73;;;;;;;;;;5033650;28;20049;-70